createdAt,value
2023-04-03T00:01:10.983Z,3.70
2023-04-03T00:03:42.902Z,3.92
2023-04-03T00:06:12.815Z,3.95
2023-04-03T00:08:40.454Z,4.10
2023-04-03T00:11:07.333Z,3.83
2023-04-03T00:13:34.221Z,4.07
2023-04-03T00:16:04.804Z,3.83
2023-04-03T00:18:35.152Z,4.00
2023-04-03T00:21:01.937Z,3.97
2023-04-03T00:23:31.328Z,4.32
2023-04-03T00:25:58.924Z,4.32
2023-04-03T00:28:27.896Z,3.70
2023-04-03T00:30:55.692Z,4.13
2023-04-03T00:33:26.540Z,4.07
2023-04-03T00:35:56.769Z,4.13
2023-04-03T00:38:23.461Z,3.20
2023-04-03T00:40:50.781Z,4.20
2023-04-03T00:43:27.520Z,4.40
2023-04-03T00:45:57.861Z,4.00
2023-04-03T00:48:29.412Z,3.97
2023-04-03T00:50:58.525Z,4.05
2023-04-03T00:53:33.577Z,3.90
2023-04-03T00:56:04.611Z,4.43
2023-04-03T00:59:05.191Z,4.57
2023-04-03T01:01:32.028Z,3.73
2023-04-03T01:04:04.290Z,4.05
2023-04-03T01:06:37.638Z,3.70
2023-04-03T01:09:04.813Z,3.90
2023-04-03T01:11:31.750Z,4.03
2023-04-03T01:14:02.765Z,4.00
2023-04-03T01:16:32.017Z,4.00
2023-04-03T01:18:59.314Z,3.83
2023-04-03T01:21:49.229Z,3.50
2023-04-03T01:24:39.615Z,4.07
2023-04-03T01:27:09.443Z,3.67
2023-04-03T01:29:38.349Z,3.97
2023-04-03T01:32:08.034Z,3.80
2023-04-03T01:34:34.716Z,3.97
2023-04-03T01:37:01.295Z,3.85
2023-04-03T01:39:30.347Z,4.15
2023-04-03T01:42:00.414Z,3.63
2023-04-03T01:44:29.804Z,3.80
2023-04-03T01:46:58.644Z,3.70
2023-04-03T01:49:25.338Z,3.58
2023-04-03T01:51:51.997Z,3.70
2023-04-03T01:57:01.587Z,3.40
2023-04-03T01:59:29.076Z,3.90
2023-04-03T02:02:00.483Z,3.90
2023-04-03T02:04:27.288Z,3.92
2023-04-03T02:06:56.224Z,3.55
2023-04-03T02:09:22.919Z,3.60
2023-04-03T02:11:51.957Z,3.90
2023-04-03T02:14:22.907Z,4.00
2023-04-03T02:16:54.239Z,4.10
2023-04-03T02:19:21.180Z,3.78
2023-04-03T02:21:47.980Z,3.90
2023-04-03T02:24:19.807Z,3.47
2023-04-03T02:26:46.497Z,3.70
2023-04-03T02:29:13.134Z,3.90
2023-04-03T02:31:39.805Z,3.58
2023-04-03T02:34:06.844Z,3.70
2023-04-03T02:36:33.507Z,3.63
2023-04-03T02:39:04.809Z,3.42
2023-04-03T02:41:36.142Z,3.97
2023-04-03T02:44:03.865Z,3.75
2023-04-03T02:46:33.506Z,3.80
2023-04-03T02:49:02.237Z,3.90
2023-04-03T02:51:28.959Z,3.65
2023-04-03T02:53:58.399Z,3.72
2023-04-03T02:56:27.882Z,3.70
2023-04-03T02:58:56.742Z,3.60
2023-04-03T03:01:28.218Z,3.22
2023-04-03T03:03:57.561Z,3.63
2023-04-03T03:06:26.658Z,3.30
2023-04-03T03:08:53.365Z,3.63
2023-04-03T03:11:22.170Z,4.05
2023-04-03T03:13:49.343Z,3.70
2023-04-03T03:16:18.358Z,3.60
2023-04-03T03:18:46.600Z,3.88
2023-04-03T03:21:15.891Z,4.03
2023-04-03T03:23:42.654Z,3.88
2023-04-03T03:26:12.187Z,3.80
2023-04-03T03:28:39.171Z,4.10
2023-04-03T03:31:08.563Z,3.67
2023-04-03T03:33:35.471Z,3.90
2023-04-03T03:36:04.340Z,4.00
2023-04-03T03:38:35.735Z,3.95
2023-04-03T03:41:02.463Z,4.00
2023-04-03T03:43:29.169Z,4.32
2023-04-03T03:45:58.103Z,4.00
2023-04-03T03:48:24.760Z,3.90
2023-04-03T03:50:51.423Z,4.22
2023-04-03T03:53:20.240Z,4.43
2023-04-03T03:55:47.348Z,4.40
2023-04-03T03:58:13.986Z,3.95
2023-04-03T04:00:40.665Z,4.28
2023-04-03T04:03:09.582Z,4.28
2023-04-03T04:05:38.842Z,4.40
2023-04-03T04:08:06.026Z,4.60
2023-04-03T04:10:34.882Z,4.13
2023-04-03T04:13:06.526Z,4.25
2023-04-03T04:15:35.701Z,4.40
2023-04-03T04:18:05.180Z,4.53
2023-04-03T04:20:31.887Z,4.47
2023-04-03T04:22:59.324Z,4.53
2023-04-03T04:25:35.964Z,4.60
2023-04-03T04:28:09.359Z,4.63
2023-04-03T04:30:38.642Z,5.00
2023-04-03T04:33:09.898Z,4.60
2023-04-03T04:38:09.842Z,4.60
2023-04-03T04:40:41.452Z,4.30
2023-04-03T04:43:11.782Z,4.80
2023-04-03T04:45:43.186Z,4.73
2023-04-03T04:48:13.370Z,5.15
2023-04-03T04:50:42.233Z,4.95
2023-04-03T04:53:11.914Z,5.03
2023-04-03T04:55:40.862Z,4.90
2023-04-03T04:58:09.663Z,5.00
2023-04-03T05:00:38.776Z,4.97
2023-04-03T05:03:07.641Z,4.95
2023-04-03T05:05:36.753Z,5.35
2023-04-03T05:08:09.375Z,4.93
2023-04-03T05:10:36.113Z,4.70
2023-04-03T05:13:03.044Z,4.88
2023-04-03T05:15:32.639Z,4.60
2023-04-03T05:17:59.407Z,5.43
2023-04-03T05:20:28.590Z,4.72
2023-04-03T05:23:00.747Z,5.00
2023-04-03T05:25:32.850Z,4.95
2023-04-03T05:27:59.624Z,5.63
2023-04-03T05:30:28.945Z,5.40
2023-04-03T05:33:00.276Z,5.28
2023-04-03T05:35:26.942Z,5.43
2023-04-03T05:37:59.316Z,5.38
2023-04-03T05:40:28.268Z,5.05
2023-04-03T05:42:57.272Z,5.05
2023-04-03T05:45:26.184Z,6.18
2023-04-03T05:47:55.224Z,5.88
2023-04-03T05:50:24.561Z,6.20
2023-04-03T05:52:53.964Z,6.35
2023-04-03T05:55:22.769Z,6.03
2023-04-03T05:57:49.499Z,6.20
2023-04-03T06:00:16.728Z,6.22
2023-04-03T06:02:48.974Z,6.68
2023-04-03T06:05:18.398Z,6.72
2023-04-03T06:07:45.786Z,8.02
2023-04-03T06:10:16.004Z,12.50
2023-04-03T06:12:44.986Z,11.25
2023-04-03T06:15:12.949Z,11.63
2023-04-03T06:17:44.440Z,11.48
2023-04-03T06:20:14.457Z,12.77
2023-04-03T06:22:43.212Z,11.93
2023-04-03T06:25:14.619Z,12.57
2023-04-03T06:27:45.985Z,12.32
2023-04-03T06:32:47.467Z,12.98
2023-04-03T06:35:19.566Z,12.57
2023-04-03T06:37:48.592Z,11.50
2023-04-03T06:40:19.807Z,12.93
2023-04-03T06:42:49.766Z,14.38
2023-04-03T06:45:21.281Z,15.02
2023-04-03T06:47:48.062Z,14.13
2023-04-03T06:50:17.934Z,16.40
2023-04-03T06:55:36.298Z,17.63
2023-04-03T06:58:06.040Z,15.40
2023-04-03T07:03:11.113Z,24.80
2023-04-03T07:05:45.502Z,13.70
2023-04-03T07:10:49.930Z,15.30
2023-04-03T07:13:18.981Z,13.63
2023-04-03T07:15:50.897Z,14.02
2023-04-03T07:18:34.856Z,14.13
2023-04-03T07:21:11.394Z,13.00
2023-04-03T07:23:43.282Z,12.48
2023-04-03T07:26:14.938Z,11.85
2023-04-03T07:31:21.823Z,11.70
2023-04-03T07:33:48.504Z,11.50
2023-04-03T07:36:17.801Z,11.32
2023-04-03T07:38:46.694Z,11.13
2023-04-03T07:41:18.615Z,10.40
2023-04-03T07:43:50.695Z,10.77
2023-04-03T07:46:22.297Z,11.07
2023-04-03T07:48:49.100Z,10.98
2023-04-03T07:51:21.779Z,11.52
2023-04-03T07:53:51.504Z,11.40
2023-04-03T07:56:21.876Z,11.82
2023-04-03T07:58:48.561Z,10.73
2023-04-03T08:01:15.301Z,10.55
2023-04-03T08:03:44.439Z,11.48
2023-04-03T08:06:16.987Z,11.65
2023-04-03T08:08:48.319Z,11.75
2023-04-03T08:11:19.164Z,11.10
2023-04-03T08:13:49.948Z,10.88
2023-04-03T08:16:22.373Z,10.98
2023-04-03T08:21:33.099Z,12.15
2023-04-03T08:24:02.735Z,11.48
2023-04-03T08:26:40.576Z,11.30
2023-04-03T08:29:07.544Z,11.68
2023-04-03T08:31:40.166Z,11.48
2023-04-03T08:34:08.631Z,11.82
2023-04-03T08:36:35.489Z,11.63
2023-04-03T08:39:05.145Z,12.50
2023-04-03T08:41:45.848Z,12.80
2023-04-03T08:44:23.536Z,12.30
2023-04-03T08:47:26.266Z,12.40
2023-04-03T08:50:00.606Z,11.48
2023-04-03T08:52:43.131Z,11.88
2023-04-03T08:55:28.971Z,11.90
2023-04-03T08:58:20.477Z,11.88
2023-04-03T09:03:26.706Z,12.23
2023-04-03T09:06:12.501Z,12.32
2023-04-03T09:09:13.053Z,12.20
2023-04-03T09:12:11.515Z,11.57
2023-04-03T09:17:40.516Z,11.80
2023-04-03T09:20:46.035Z,12.70
2023-04-03T09:23:19.292Z,12.23
2023-04-03T09:25:48.217Z,11.80
2023-04-03T09:28:17.188Z,11.60
2023-04-03T09:30:46.198Z,12.10
2023-04-03T09:33:12.902Z,12.00
2023-04-03T09:35:48.182Z,11.32
2023-04-03T09:38:23.248Z,11.95
2023-04-03T09:40:54.126Z,11.60
2023-04-03T09:43:33.839Z,11.73
2023-04-03T09:46:40.681Z,11.75
2023-04-03T09:49:12.773Z,12.05
2023-04-03T09:51:41.839Z,11.68
2023-04-03T09:54:31.670Z,11.50
2023-04-03T09:57:00.596Z,11.60
2023-04-03T09:59:31.999Z,12.27
2023-04-03T10:02:03.990Z,11.02
2023-04-03T10:05:06.202Z,11.65
2023-04-03T10:07:44.402Z,11.13
2023-04-03T10:10:16.079Z,11.02
2023-04-03T10:12:45.885Z,11.23
2023-04-03T10:15:21.111Z,11.27
2023-04-03T10:17:57.019Z,11.63
2023-04-03T10:20:43.789Z,11.52
2023-04-03T10:23:21.047Z,11.10
2023-04-03T10:26:25.401Z,11.20
2023-04-03T10:29:11.086Z,10.98
2023-04-03T10:31:59.148Z,11.40
2023-04-03T10:35:02.374Z,11.27
2023-04-03T10:37:38.461Z,11.63
2023-04-03T10:40:27.155Z,10.65
2023-04-03T10:43:26.851Z,11.60
2023-04-03T10:46:16.227Z,10.07
2023-04-03T10:49:01.979Z,10.73
2023-04-03T10:51:41.427Z,10.32
2023-04-03T10:54:17.198Z,10.20
2023-04-03T10:57:04.460Z,10.55
2023-04-03T10:59:47.812Z,9.95
2023-04-03T11:02:30.236Z,10.05
2023-04-03T11:05:27.629Z,9.20
2023-04-03T11:07:54.477Z,6.53
2023-04-03T11:10:39.993Z,5.60
2023-04-03T11:13:14.147Z,5.00
2023-04-03T11:15:44.678Z,5.75
2023-04-03T11:18:17.161Z,6.10
2023-04-03T11:20:48.458Z,6.22
2023-04-03T11:23:46.045Z,6.03
2023-04-03T11:26:25.991Z,6.20
2023-04-03T11:31:46.027Z,5.75
2023-04-03T11:34:20.384Z,6.10
2023-04-03T11:36:48.590Z,5.25
2023-04-03T11:39:25.151Z,5.55
2023-04-03T11:42:10.699Z,5.45
2023-04-03T11:44:40.595Z,5.15
2023-04-03T11:49:52.110Z,6.15
2023-04-03T11:52:43.758Z,5.75
2023-04-03T11:55:31.492Z,5.70
2023-04-03T11:58:04.116Z,5.18
2023-04-03T12:00:56.132Z,5.28
2023-04-03T12:03:30.072Z,5.57
2023-04-03T12:06:06.738Z,4.93
2023-04-03T12:08:48.407Z,5.10
2023-04-03T12:11:17.756Z,5.60
2023-04-03T12:13:51.172Z,5.05
2023-04-03T12:16:47.020Z,5.55
2023-04-03T12:19:42.391Z,5.05
2023-04-03T12:22:13.935Z,5.05
2023-04-03T12:24:47.970Z,4.95
2023-04-03T12:27:35.268Z,6.32
2023-04-03T12:30:05.072Z,4.88
2023-04-03T12:32:41.466Z,5.07
2023-04-03T12:35:37.435Z,5.28
2023-04-03T12:38:31.084Z,5.60
2023-04-03T12:41:19.266Z,5.25
2023-04-03T12:43:57.117Z,4.63
2023-04-03T12:46:32.098Z,4.95
2023-04-03T12:49:01.492Z,4.43
2023-04-03T12:51:42.278Z,4.65
2023-04-03T12:54:27.684Z,4.97
2023-04-03T12:57:28.737Z,4.55
2023-04-03T12:59:58.518Z,4.32
2023-04-03T13:02:28.760Z,4.35
2023-04-03T13:05:07.493Z,4.13
2023-04-03T13:07:35.964Z,4.32
2023-04-03T13:10:22.930Z,4.50
2023-04-03T13:12:53.468Z,4.25
2023-04-03T13:15:24.525Z,4.37
2023-04-03T13:17:53.497Z,4.05
2023-04-03T13:20:37.101Z,4.20
2023-04-03T13:23:07.382Z,4.30
2023-04-03T13:25:37.627Z,3.75
2023-04-03T13:28:13.183Z,4.07
2023-04-03T13:30:41.555Z,4.18
2023-04-03T13:33:24.001Z,4.40
2023-04-03T13:36:06.129Z,4.32
2023-04-03T13:38:34.771Z,4.25
2023-04-03T13:43:41.946Z,3.88
2023-04-03T13:46:12.009Z,3.90
2023-04-03T13:48:41.092Z,3.90
2023-04-03T13:51:16.955Z,4.10
2023-04-03T13:53:46.368Z,4.28
2023-04-03T13:56:24.602Z,4.05
2023-04-03T13:59:02.219Z,4.00
2023-04-03T14:01:39.830Z,3.65
2023-04-03T14:04:45.261Z,4.28
2023-04-03T14:07:17.883Z,4.20
2023-04-03T14:09:47.174Z,3.90
2023-04-03T14:12:38.216Z,3.63
2023-04-03T14:15:06.975Z,5.15
2023-04-03T14:17:34.573Z,3.85
2023-04-03T14:20:02.656Z,3.90
2023-04-03T14:22:31.532Z,4.03
2023-04-03T14:25:03.076Z,4.03
2023-04-03T14:27:39.062Z,5.00
2023-04-03T14:30:10.673Z,5.07
2023-04-03T14:32:39.869Z,4.93
2023-04-03T14:35:08.309Z,5.00
2023-04-03T14:37:40.252Z,4.80
2023-04-03T14:40:09.288Z,4.65
2023-04-03T14:42:42.195Z,4.07
2023-04-03T14:45:11.262Z,4.45
2023-04-03T14:47:47.848Z,4.00
2023-04-03T14:50:24.977Z,4.03
2023-04-03T14:52:57.405Z,4.15
2023-04-03T14:55:26.364Z,3.83
2023-04-03T14:57:53.492Z,3.65
2023-04-03T15:00:23.556Z,3.50
2023-04-03T15:02:52.523Z,3.75
2023-04-03T15:05:25.006Z,3.50
2023-04-03T15:07:56.349Z,3.78
2023-04-03T15:10:30.449Z,3.83
2023-04-03T15:13:01.921Z,4.22
2023-04-03T15:15:31.947Z,4.10
2023-04-03T15:17:59.287Z,3.65
2023-04-03T15:20:27.441Z,3.60
2023-04-03T15:22:54.422Z,3.90
2023-04-03T15:25:21.190Z,3.70
2023-04-03T15:27:50.191Z,3.50
2023-04-03T15:30:19.691Z,3.53
2023-04-03T15:32:48.837Z,3.60
2023-04-03T15:35:20.296Z,3.38
2023-04-03T15:37:49.283Z,3.50
2023-04-03T15:40:18.574Z,3.20
2023-04-03T15:42:51.327Z,3.42
2023-04-03T15:45:25.044Z,3.38
2023-04-03T15:47:54.167Z,3.42
2023-04-03T15:50:25.022Z,3.13
2023-04-03T15:52:55.378Z,3.30
2023-04-03T15:55:25.991Z,2.90
2023-04-03T15:57:53.484Z,3.30
2023-04-03T16:00:21.288Z,3.60
2023-04-03T16:02:48.323Z,3.40
2023-04-03T16:05:18.353Z,2.92
2023-04-03T16:07:49.737Z,3.00
2023-04-03T16:10:22.204Z,3.58
2023-04-03T16:12:48.988Z,3.00
2023-04-03T16:15:18.096Z,3.28
2023-04-03T16:17:49.606Z,3.15
2023-04-03T16:20:22.617Z,3.17
2023-04-03T16:22:52.208Z,3.00
2023-04-03T16:25:22.074Z,3.38
2023-04-03T16:27:48.988Z,3.40
2023-04-03T16:30:17.890Z,2.90
2023-04-03T16:32:45.068Z,3.03
2023-04-03T16:35:12.020Z,3.15
2023-04-03T16:37:39.917Z,3.05
2023-04-03T16:40:07.793Z,2.80
2023-04-03T16:42:39.198Z,2.90
2023-04-03T16:45:10.191Z,3.00
2023-04-03T16:47:43.037Z,3.00
2023-04-03T16:50:10.031Z,3.03
2023-04-03T16:52:39.243Z,3.00
2023-04-03T16:55:07.593Z,3.10
2023-04-03T16:57:36.454Z,2.95
2023-04-03T17:00:09.371Z,3.10
2023-04-03T17:02:36.279Z,2.95
2023-04-03T17:05:03.156Z,2.80
2023-04-03T17:07:29.878Z,2.70
2023-04-03T17:10:01.197Z,2.72
2023-04-03T17:12:30.617Z,2.83
2023-04-03T17:15:01.981Z,3.13
2023-04-03T17:17:31.820Z,3.45
2023-04-03T17:19:58.681Z,5.05
2023-04-03T17:22:27.560Z,4.40
2023-04-03T17:24:59.128Z,4.78
2023-04-03T17:27:28.469Z,5.75
2023-04-03T17:29:57.331Z,6.88
2023-04-03T17:32:26.494Z,8.10
2023-04-03T17:34:56.325Z,9.10
2023-04-03T17:37:25.174Z,8.73
2023-04-03T17:39:56.608Z,9.07
2023-04-03T17:42:23.320Z,8.85
2023-04-03T17:44:52.193Z,7.88
2023-04-03T17:47:19.346Z,7.22
2023-04-03T17:49:48.218Z,5.78
2023-04-03T17:52:14.919Z,5.80
2023-04-03T17:54:43.828Z,5.63
2023-04-03T17:57:12.933Z,5.63
2023-04-03T17:59:41.768Z,6.20
2023-04-03T18:02:10.602Z,7.03
2023-04-03T18:04:39.841Z,6.65
2023-04-03T18:07:10.175Z,6.22
2023-04-03T18:09:39.611Z,5.87
2023-04-03T18:12:09.416Z,5.85
2023-04-03T18:14:36.502Z,5.38
2023-04-03T18:17:05.932Z,7.22
2023-04-03T18:19:32.867Z,18.90
2023-04-03T18:22:05.330Z,34.92
2023-04-03T18:24:34.865Z,52.80
2023-04-03T18:27:14.548Z,62.55
2023-04-03T18:29:45.390Z,67.22
2023-04-03T18:32:13.530Z,65.43
2023-04-03T18:34:40.402Z,68.03
2023-04-03T18:37:12.621Z,64.22
2023-04-03T18:39:41.464Z,69.75
2023-04-03T18:42:22.262Z,63.42
2023-04-03T18:44:53.727Z,64.78
2023-04-03T18:47:25.108Z,61.08
2023-04-03T18:49:51.755Z,62.33
2023-04-03T18:52:19.022Z,63.35
2023-04-03T18:54:48.009Z,59.58
2023-04-03T18:57:16.973Z,58.53
2023-04-03T18:59:43.860Z,56.67
2023-04-03T19:02:11.165Z,55.17
2023-04-03T19:04:40.019Z,55.25
2023-04-03T19:07:12.116Z,54.17
2023-04-03T19:09:39.579Z,51.58
2023-04-03T19:12:09.395Z,51.50
2023-04-03T19:14:36.057Z,50.85
2023-04-03T19:17:04.170Z,49.05
2023-04-03T19:19:36.186Z,47.70
2023-04-03T19:22:05.042Z,48.13
2023-04-03T19:24:33.980Z,47.78
2023-04-03T19:27:04.374Z,45.03
2023-04-03T19:29:31.079Z,44.03
2023-04-03T19:31:57.768Z,42.83
2023-04-03T19:34:26.682Z,42.33
2023-04-03T19:36:55.817Z,40.03
2023-04-03T19:39:24.657Z,39.88
2023-04-03T19:41:53.949Z,38.80
2023-04-03T19:44:20.760Z,38.15
2023-04-03T19:46:51.053Z,36.78
2023-04-03T19:49:18.902Z,35.03
2023-04-03T19:51:53.679Z,33.92
2023-04-03T19:54:20.967Z,33.20
2023-04-03T19:56:49.825Z,31.35
2023-04-03T19:59:18.724Z,29.63
2023-04-03T20:01:48.168Z,27.70
2023-04-03T20:04:20.016Z,29.65
2023-04-03T20:06:46.806Z,27.45
2023-04-03T20:09:13.485Z,26.95
2023-04-03T20:11:43.086Z,27.02
2023-04-03T20:14:12.403Z,26.42
2023-04-03T20:16:43.748Z,25.67
2023-04-03T20:19:13.570Z,25.63
2023-04-03T20:21:40.462Z,25.65
2023-04-03T20:24:12.059Z,24.40
2023-04-03T20:26:43.896Z,24.15
2023-04-03T20:29:10.511Z,24.25
2023-04-03T20:31:41.887Z,23.15
2023-04-03T20:34:09.286Z,24.40
2023-04-03T20:36:38.758Z,23.23
2023-04-03T20:39:07.784Z,23.08
2023-04-03T20:41:37.265Z,23.98
2023-04-03T20:44:04.596Z,23.02
2023-04-03T20:46:51.190Z,22.77
2023-04-03T20:49:19.351Z,22.05
2023-04-03T20:51:49.055Z,21.75
2023-04-03T20:54:18.492Z,21.48
2023-04-03T20:56:50.029Z,22.17
2023-04-03T20:59:17.116Z,21.48
2023-04-03T21:01:45.922Z,22.02
2023-04-03T21:04:15.902Z,19.88
2023-04-03T21:07:20.118Z,20.90
2023-04-03T21:10:24.704Z,18.85
2023-04-03T21:13:29.207Z,20.58
2023-04-03T21:15:56.071Z,19.67
2023-04-03T21:18:35.507Z,20.27
2023-04-03T21:21:02.919Z,19.05
2023-04-03T21:23:30.585Z,18.27
2023-04-03T21:25:58.110Z,19.52
2023-04-03T21:28:25.162Z,18.65
2023-04-03T21:30:59.515Z,18.98
2023-04-03T21:33:28.705Z,18.75
2023-04-03T21:35:58.687Z,19.58
2023-04-03T21:38:32.366Z,18.58
2023-04-03T21:41:02.244Z,17.95
2023-04-03T21:43:33.914Z,17.00
2023-04-03T21:46:02.939Z,17.50
2023-04-03T21:48:32.804Z,17.02
2023-04-03T21:51:08.147Z,17.00
2023-04-03T21:53:35.592Z,15.80
2023-04-03T21:56:06.874Z,16.50
2023-04-03T22:01:11.893Z,16.90
2023-04-03T22:03:41.718Z,17.77
2023-04-03T22:06:34.206Z,16.85
2023-04-03T22:09:03.309Z,17.92
2023-04-03T22:11:32.343Z,17.40
2023-04-03T22:14:01.204Z,17.73
2023-04-03T22:16:28.109Z,18.55
2023-04-03T22:18:56.939Z,5.75
2023-04-03T22:21:27.201Z,6.50
2023-04-03T22:23:54.740Z,15.50
2023-04-03T22:26:23.720Z,14.32
2023-04-03T22:28:50.435Z,13.32
2023-04-03T22:31:20.666Z,13.65
2023-04-03T22:33:49.491Z,13.73
2023-04-03T22:36:16.430Z,14.80
2023-04-03T22:38:47.298Z,14.40
2023-04-03T22:41:13.963Z,13.65
2023-04-03T22:43:43.299Z,14.73
2023-04-03T22:46:12.096Z,13.48
2023-04-03T22:48:41.103Z,14.18
2023-04-03T22:51:08.522Z,14.80
2023-04-03T22:53:38.641Z,14.50
2023-04-03T22:56:12.012Z,14.07
2023-04-03T22:58:42.653Z,14.15
2023-04-03T23:01:13.177Z,13.65
2023-04-03T23:03:43.253Z,14.43
2023-04-03T23:06:13.045Z,13.27
2023-04-03T23:08:42.032Z,14.15
2023-04-03T23:11:11.513Z,14.27
2023-04-03T23:13:38.396Z,13.13
2023-04-03T23:16:05.422Z,13.73
2023-04-03T23:18:32.933Z,13.23
2023-04-03T23:21:00.109Z,13.90
2023-04-03T23:23:32.069Z,13.40
2023-04-03T23:26:04.697Z,13.32
2023-04-03T23:28:31.517Z,12.63
2023-04-03T23:31:02.455Z,12.93
2023-04-03T23:33:30.710Z,12.85
2023-04-03T23:35:59.822Z,13.15
2023-04-03T23:38:29.626Z,12.85
2023-04-03T23:40:58.560Z,12.88
2023-04-03T23:43:32.480Z,12.57
2023-04-03T23:46:05.307Z,11.88
2023-04-03T23:48:37.082Z,12.57
2023-04-03T23:51:06.155Z,12.43
2023-04-03T23:53:32.765Z,12.23
2023-04-03T23:56:01.703Z,10.77
2023-04-03T23:58:30.459Z,12.05
